sensor_id;sensor_type;location;lat;lon;timestamp;temperature;humidity
64874;HTU21D;51367;45.204;38.576;2023-03-21T00:01:03;9.56;78.82
64874;HTU21D;51367;45.204;38.576;2023-03-21T00:03:31;9.61;78.65
64874;HTU21D;51367;45.204;38.576;2023-03-21T00:05:58;9.63;78.53
64874;HTU21D;51367;45.204;38.576;2023-03-21T00:08:25;9.62;78.44
64874;HTU21D;51367;45.204;38.576;2023-03-21T00:11:02;9.60;78.43
64874;HTU21D;51367;45.204;38.576;2023-03-21T00:13:29;9.55;78.43
64874;HTU21D;51367;45.204;38.576;2023-03-21T00:16:12;9.53;78.43
64874;HTU21D;51367;45.204;38.576;2023-03-21T00:18:45;9.51;78.47
64874;HTU21D;51367;45.204;38.576;2023-03-21T00:21:14;9.49;78.49
64874;HTU21D;51367;45.204;38.576;2023-03-21T00:23:41;9.46;78.51
64874;HTU21D;51367;45.204;38.576;2023-03-21T00:26:08;9.45;78.53
64874;HTU21D;51367;45.204;38.576;2023-03-21T00:28:38;9.41;78.57
64874;HTU21D;51367;45.204;38.576;2023-03-21T00:31:05;9.42;78.56
64874;HTU21D;51367;45.204;38.576;2023-03-21T00:33:32;9.40;78.59
64874;HTU21D;51367;45.204;38.576;2023-03-21T00:36:00;9.40;78.59
64874;HTU21D;51367;45.204;38.576;2023-03-21T00:38:26;9.41;78.59
64874;HTU21D;51367;45.204;38.576;2023-03-21T00:40:52;9.42;78.59
64874;HTU21D;51367;45.204;38.576;2023-03-21T00:43:18;9.41;78.60
64874;HTU21D;51367;45.204;38.576;2023-03-21T00:45:49;9.41;78.61
64874;HTU21D;51367;45.204;38.576;2023-03-21T00:48:17;9.42;78.59
64874;HTU21D;51367;45.204;38.576;2023-03-21T00:50:44;9.41;78.59
64874;HTU21D;51367;45.204;38.576;2023-03-21T00:53:12;9.44;78.58
64874;HTU21D;51367;45.204;38.576;2023-03-21T00:55:38;9.42;78.59
64874;HTU21D;51367;45.204;38.576;2023-03-21T00:58:04;9.42;78.59
64874;HTU21D;51367;45.204;38.576;2023-03-21T01:00:30;9.44;78.57
64874;HTU21D;51367;45.204;38.576;2023-03-21T01:02:58;9.41;78.61
64874;HTU21D;51367;45.204;38.576;2023-03-21T01:05:32;9.41;78.60
64874;HTU21D;51367;45.204;38.576;2023-03-21T01:08:18;9.40;78.61
64874;HTU21D;51367;45.204;38.576;2023-03-21T01:10:46;9.38;78.63
64874;HTU21D;51367;45.204;38.576;2023-03-21T01:13:13;9.38;78.68
64874;HTU21D;51367;45.204;38.576;2023-03-21T01:15:49;9.38;78.72
64874;HTU21D;51367;45.204;38.576;2023-03-21T01:18:17;9.38;78.76
64874;HTU21D;51367;45.204;38.576;2023-03-21T01:20:44;9.39;78.78
64874;HTU21D;51367;45.204;38.576;2023-03-21T01:23:11;9.40;78.79
64874;HTU21D;51367;45.204;38.576;2023-03-21T01:25:37;9.40;78.80
64874;HTU21D;51367;45.204;38.576;2023-03-21T01:28:04;9.41;78.83
64874;HTU21D;51367;45.204;38.576;2023-03-21T01:30:31;9.42;78.86
64874;HTU21D;51367;45.204;38.576;2023-03-21T01:32:57;9.42;78.86
64874;HTU21D;51367;45.204;38.576;2023-03-21T01:35:23;9.44;78.91
64874;HTU21D;51367;45.204;38.576;2023-03-21T01:37:50;9.44;78.95
64874;HTU21D;51367;45.204;38.576;2023-03-21T01:40:24;9.44;78.98
64874;HTU21D;51367;45.204;38.576;2023-03-21T01:42:56;9.45;79.01
64874;HTU21D;51367;45.204;38.576;2023-03-21T01:51:47;9.46;79.12
64874;HTU21D;51367;45.204;38.576;2023-03-21T01:54:22;9.48;79.12
64874;HTU21D;51367;45.204;38.576;2023-03-21T01:56:53;9.50;79.17
64874;HTU21D;51367;45.204;38.576;2023-03-21T01:59:43;9.51;79.24
64874;HTU21D;51367;45.204;38.576;2023-03-21T02:02:28;9.54;79.22
64874;HTU21D;51367;45.204;38.576;2023-03-21T02:05:09;9.55;79.24
64874;HTU21D;51367;45.204;38.576;2023-03-21T02:07:35;9.59;79.27
64874;HTU21D;51367;45.204;38.576;2023-03-21T02:10:09;9.60;79.30
64874;HTU21D;51367;45.204;38.576;2023-03-21T02:12:39;9.62;79.31
64874;HTU21D;51367;45.204;38.576;2023-03-21T02:15:07;9.63;79.35
64874;HTU21D;51367;45.204;38.576;2023-03-21T02:18:26;9.65;79.40
64874;HTU21D;51367;45.204;38.576;2023-03-21T02:38:17;9.77;79.53
64874;HTU21D;51367;45.204;38.576;2023-03-21T02:40:58;9.76;79.55
64874;HTU21D;51367;45.204;38.576;2023-03-21T02:46:00;9.76;79.65
64874;HTU21D;51367;45.204;38.576;2023-03-21T02:48:38;9.77;79.70
64874;HTU21D;51367;45.204;38.576;2023-03-21T02:51:09;9.77;79.71
64874;HTU21D;51367;45.204;38.576;2023-03-21T02:57:56;9.74;79.71
64874;HTU21D;51367;45.204;38.576;2023-03-21T03:00:26;9.72;79.73
64874;HTU21D;51367;45.204;38.576;2023-03-21T03:02:53;9.70;79.79
64874;HTU21D;51367;45.204;38.576;2023-03-21T03:05:24;9.68;79.82
64874;HTU21D;51367;45.204;38.576;2023-03-21T03:08:14;9.65;79.90
64874;HTU21D;51367;45.204;38.576;2023-03-21T03:11:00;9.62;79.90
64874;HTU21D;51367;45.204;38.576;2023-03-21T03:16:16;9.56;79.98
64874;HTU21D;51367;45.204;38.576;2023-03-21T03:18:47;9.55;80.02
64874;HTU21D;51367;45.204;38.576;2023-03-21T03:21:37;9.52;80.10
64874;HTU21D;51367;45.204;38.576;2023-03-21T03:24:18;9.51;80.11
64874;HTU21D;51367;45.204;38.576;2023-03-21T03:29:18;9.47;80.19
64874;HTU21D;51367;45.204;38.576;2023-03-21T03:31:49;9.47;80.20
64874;HTU21D;51367;45.204;38.576;2023-03-21T03:34:19;9.46;80.24
64874;HTU21D;51367;45.204;38.576;2023-03-21T03:36:51;9.47;80.26
64874;HTU21D;51367;45.204;38.576;2023-03-21T03:39:26;9.46;80.27
64874;HTU21D;51367;45.204;38.576;2023-03-21T03:42:13;9.45;80.30
64874;HTU21D;51367;45.204;38.576;2023-03-21T03:44:44;9.45;80.30
64874;HTU21D;51367;45.204;38.576;2023-03-21T03:47:20;9.46;80.32
64874;HTU21D;51367;45.204;38.576;2023-03-21T03:51:05;9.46;80.32
64874;HTU21D;51367;45.204;38.576;2023-03-21T03:55:32;9.49;80.30
64874;HTU21D;51367;45.204;38.576;2023-03-21T03:58:04;9.51;80.30
64874;HTU21D;51367;45.204;38.576;2023-03-21T04:00:32;9.52;80.30
64874;HTU21D;51367;45.204;38.576;2023-03-21T04:02:58;9.52;80.28
64874;HTU21D;51367;45.204;38.576;2023-03-21T04:05:25;9.54;80.30
64874;HTU21D;51367;45.204;38.576;2023-03-21T04:07:52;9.54;80.30
64874;HTU21D;51367;45.204;38.576;2023-03-21T04:10:28;9.59;80.31
64874;HTU21D;51367;45.204;38.576;2023-03-21T04:12:54;9.60;80.30
64874;HTU21D;51367;45.204;38.576;2023-03-21T04:15:49;9.62;80.30
64874;HTU21D;51367;45.204;38.576;2023-03-21T04:18:15;9.65;80.29
64874;HTU21D;51367;45.204;38.576;2023-03-21T04:20:42;9.67;80.30
64874;HTU21D;51367;45.204;38.576;2023-03-21T04:23:10;9.71;80.33
64874;HTU21D;51367;45.204;38.576;2023-03-21T04:25:41;9.76;80.33
64874;HTU21D;51367;45.204;38.576;2023-03-21T04:28:07;9.80;80.33
64874;HTU21D;51367;45.204;38.576;2023-03-21T04:30:41;9.82;80.32
64874;HTU21D;51367;45.204;38.576;2023-03-21T04:33:16;9.89;80.31
64874;HTU21D;51367;45.204;38.576;2023-03-21T04:35:51;9.94;80.27
64874;HTU21D;51367;45.204;38.576;2023-03-21T04:38:26;9.98;80.24
64874;HTU21D;51367;45.204;38.576;2023-03-21T04:40:59;10.00;80.20
64874;HTU21D;51367;45.204;38.576;2023-03-21T04:43:28;10.04;80.20
64874;HTU21D;51367;45.204;38.576;2023-03-21T04:45:55;10.07;80.22
64874;HTU21D;51367;45.204;38.576;2023-03-21T04:48:21;10.11;80.24
64874;HTU21D;51367;45.204;38.576;2023-03-21T04:50:50;10.12;80.24
64874;HTU21D;51367;45.204;38.576;2023-03-21T04:53:17;10.16;80.24
64874;HTU21D;51367;45.204;38.576;2023-03-21T04:55:42;10.20;80.24
64874;HTU21D;51367;45.204;38.576;2023-03-21T04:58:09;10.24;80.24
64874;HTU21D;51367;45.204;38.576;2023-03-21T05:00:35;10.26;80.25
64874;HTU21D;51367;45.204;38.576;2023-03-21T05:03:05;10.33;80.24
64874;HTU21D;51367;45.204;38.576;2023-03-21T05:05:36;10.37;80.20
64874;HTU21D;51367;45.204;38.576;2023-03-21T05:08:04;10.42;80.19
64874;HTU21D;51367;45.204;38.576;2023-03-21T05:10:30;10.45;80.20
64874;HTU21D;51367;45.204;38.576;2023-03-21T05:12:57;10.51;80.17
64874;HTU21D;51367;45.204;38.576;2023-03-21T05:15:23;10.56;80.14
64874;HTU21D;51367;45.204;38.576;2023-03-21T05:17:49;10.58;80.12
64874;HTU21D;51367;45.204;38.576;2023-03-21T05:20:15;10.63;80.13
64874;HTU21D;51367;45.204;38.576;2023-03-21T05:22:43;10.68;80.11
64874;HTU21D;51367;45.204;38.576;2023-03-21T05:25:13;10.72;80.06
64874;HTU21D;51367;45.204;38.576;2023-03-21T05:28:11;10.78;80.03
64874;HTU21D;51367;45.204;38.576;2023-03-21T05:30:37;10.81;80.01
64874;HTU21D;51367;45.204;38.576;2023-03-21T05:33:04;10.83;80.02
64874;HTU21D;51367;45.204;38.576;2023-03-21T05:35:29;10.87;80.01
64874;HTU21D;51367;45.204;38.576;2023-03-21T05:37:58;10.92;79.98
64874;HTU21D;51367;45.204;38.576;2023-03-21T05:40:28;10.95;79.98
64874;HTU21D;51367;45.204;38.576;2023-03-21T05:42:56;10.97;79.98
64874;HTU21D;51367;45.204;38.576;2023-03-21T05:45:23;10.99;79.95
64874;HTU21D;51367;45.204;38.576;2023-03-21T05:47:50;11.00;79.94
64874;HTU21D;51367;45.204;38.576;2023-03-21T05:50:18;11.03;79.92
64874;HTU21D;51367;45.204;38.576;2023-03-21T05:52:54;11.02;79.96
64874;HTU21D;51367;45.204;38.576;2023-03-21T05:55:20;11.04;79.97
64874;HTU21D;51367;45.204;38.576;2023-03-21T05:57:47;11.05;79.98
64874;HTU21D;51367;45.204;38.576;2023-03-21T06:00:20;11.08;80.00
64874;HTU21D;51367;45.204;38.576;2023-03-21T06:03:06;11.10;79.98
64874;HTU21D;51367;45.204;38.576;2023-03-21T06:05:54;11.15;79.95
64874;HTU21D;51367;45.204;38.576;2023-03-21T06:08:24;11.18;79.93
64874;HTU21D;51367;45.204;38.576;2023-03-21T06:10:50;11.24;79.91
64874;HTU21D;51367;45.204;38.576;2023-03-21T06:13:16;11.28;79.87
64874;HTU21D;51367;45.204;38.576;2023-03-21T06:15:43;11.32;79.82
64874;HTU21D;51367;45.204;38.576;2023-03-21T06:18:14;11.36;79.76
64874;HTU21D;51367;45.204;38.576;2023-03-21T06:20:50;11.36;79.78
64874;HTU21D;51367;45.204;38.576;2023-03-21T06:23:16;11.42;79.75
64874;HTU21D;51367;45.204;38.576;2023-03-21T06:25:43;11.45;79.75
64874;HTU21D;51367;45.204;38.576;2023-03-21T06:28:09;11.52;79.72
64874;HTU21D;51367;45.204;38.576;2023-03-21T06:30:38;11.57;79.66
64874;HTU21D;51367;45.204;38.576;2023-03-21T06:33:23;11.63;79.60
64874;HTU21D;51367;45.204;38.576;2023-03-21T06:35:52;11.69;79.53
64874;HTU21D;51367;45.204;38.576;2023-03-21T06:38:18;11.72;79.47
64874;HTU21D;51367;45.204;38.576;2023-03-21T06:40:46;11.76;79.46
64874;HTU21D;51367;45.204;38.576;2023-03-21T06:43:13;11.82;79.43
64874;HTU21D;51367;45.204;38.576;2023-03-21T06:45:39;11.85;79.38
64874;HTU21D;51367;45.204;38.576;2023-03-21T06:48:08;11.88;79.33
64874;HTU21D;51367;45.204;38.576;2023-03-21T06:50:50;11.90;79.30
64874;HTU21D;51367;45.204;38.576;2023-03-21T06:53:18;11.92;79.25
64874;HTU21D;51367;45.204;38.576;2023-03-21T06:56:15;11.94;79.23
64874;HTU21D;51367;45.204;38.576;2023-03-21T06:58:42;11.96;79.21
64874;HTU21D;51367;45.204;38.576;2023-03-21T07:01:16;11.98;79.23
64874;HTU21D;51367;45.204;38.576;2023-03-21T07:03:53;11.99;79.21
64874;HTU21D;51367;45.204;38.576;2023-03-21T07:06:22;12.00;79.22
64874;HTU21D;51367;45.204;38.576;2023-03-21T07:08:52;12.02;79.24
64874;HTU21D;51367;45.204;38.576;2023-03-21T07:11:18;12.04;79.20
64874;HTU21D;51367;45.204;38.576;2023-03-21T07:13:46;12.12;79.22
64874;HTU21D;51367;45.204;38.576;2023-03-21T07:16:14;12.15;79.16
64874;HTU21D;51367;45.204;38.576;2023-03-21T07:18:41;12.19;79.08
64874;HTU21D;51367;45.204;38.576;2023-03-21T07:21:07;12.23;79.01
64874;HTU21D;51367;45.204;38.576;2023-03-21T07:23:33;12.26;78.99
64874;HTU21D;51367;45.204;38.576;2023-03-21T07:25:59;12.29;78.90
64874;HTU21D;51367;45.204;38.576;2023-03-21T07:28:26;12.29;78.85
64874;HTU21D;51367;45.204;38.576;2023-03-21T07:30:55;12.31;78.85
64874;HTU21D;51367;45.204;38.576;2023-03-21T07:33:22;12.34;78.80
64874;HTU21D;51367;45.204;38.576;2023-03-21T07:35:53;12.37;78.77
64874;HTU21D;51367;45.204;38.576;2023-03-21T07:38:19;12.38;78.72
64874;HTU21D;51367;45.204;38.576;2023-03-21T07:40:47;12.42;78.73
64874;HTU21D;51367;45.204;38.576;2023-03-21T07:43:13;12.46;78.71
64874;HTU21D;51367;45.204;38.576;2023-03-21T07:45:43;12.49;78.64
64874;HTU21D;51367;45.204;38.576;2023-03-21T07:48:10;12.52;78.58
64874;HTU21D;51367;45.204;38.576;2023-03-21T07:50:42;12.56;78.53
64874;HTU21D;51367;45.204;38.576;2023-03-21T07:53:08;12.56;78.43
64874;HTU21D;51367;45.204;38.576;2023-03-21T07:55:34;12.56;78.43
64874;HTU21D;51367;45.204;38.576;2023-03-21T07:58:01;12.57;78.36
64874;HTU21D;51367;45.204;38.576;2023-03-21T08:00:27;12.56;78.34
64874;HTU21D;51367;45.204;38.576;2023-03-21T08:02:55;12.55;78.23
64874;HTU21D;51367;45.204;38.576;2023-03-21T08:05:22;12.52;78.18
64874;HTU21D;51367;45.204;38.576;2023-03-21T08:07:49;12.52;78.27
64874;HTU21D;51367;45.204;38.576;2023-03-21T08:10:16;12.55;78.27
64874;HTU21D;51367;45.204;38.576;2023-03-21T08:12:43;12.57;78.20
64874;HTU21D;51367;45.204;38.576;2023-03-21T08:15:11;12.56;78.11
64874;HTU21D;51367;45.204;38.576;2023-03-21T08:17:37;12.58;78.17
64874;HTU21D;51367;45.204;38.576;2023-03-21T08:20:08;12.57;78.11
64874;HTU21D;51367;45.204;38.576;2023-03-21T08:22:37;12.58;78.10
64874;HTU21D;51367;45.204;38.576;2023-03-21T08:25:04;12.59;78.05
64874;HTU21D;51367;45.204;38.576;2023-03-21T08:27:31;12.59;78.01
64874;HTU21D;51367;45.204;38.576;2023-03-21T08:29:58;12.59;77.98
64874;HTU21D;51367;45.204;38.576;2023-03-21T08:32:24;12.60;77.97
64874;HTU21D;51367;45.204;38.576;2023-03-21T08:35:00;12.63;77.92
64874;HTU21D;51367;45.204;38.576;2023-03-21T08:37:26;12.65;77.88
64874;HTU21D;51367;45.204;38.576;2023-03-21T08:39:53;12.67;77.82
64874;HTU21D;51367;45.204;38.576;2023-03-21T08:42:19;12.69;77.79
64874;HTU21D;51367;45.204;38.576;2023-03-21T08:44:46;12.73;77.74
64874;HTU21D;51367;45.204;38.576;2023-03-21T08:47:13;12.76;77.70
64874;HTU21D;51367;45.204;38.576;2023-03-21T08:49:39;12.79;77.63
64874;HTU21D;51367;45.204;38.576;2023-03-21T08:52:06;12.81;77.60
64874;HTU21D;51367;45.204;38.576;2023-03-21T08:54:32;12.85;77.56
64874;HTU21D;51367;45.204;38.576;2023-03-21T08:56:58;12.90;77.50
64874;HTU21D;51367;45.204;38.576;2023-03-21T08:59:24;12.93;77.44
64874;HTU21D;51367;45.204;38.576;2023-03-21T09:01:50;12.99;77.41
64874;HTU21D;51367;45.204;38.576;2023-03-21T09:04:16;13.03;77.34
64874;HTU21D;51367;45.204;38.576;2023-03-21T09:06:43;13.10;77.27
64874;HTU21D;51367;45.204;38.576;2023-03-21T09:09:16;13.17;77.20
64874;HTU21D;51367;45.204;38.576;2023-03-21T09:11:42;13.24;77.11
64874;HTU21D;51367;45.204;38.576;2023-03-21T09:14:08;13.32;77.02
64874;HTU21D;51367;45.204;38.576;2023-03-21T09:16:36;13.40;76.91
64874;HTU21D;51367;45.204;38.576;2023-03-21T09:19:02;13.49;76.78
64874;HTU21D;51367;45.204;38.576;2023-03-21T09:21:29;13.56;76.67
64874;HTU21D;51367;45.204;38.576;2023-03-21T09:23:55;13.66;76.57
64874;HTU21D;51367;45.204;38.576;2023-03-21T09:26:25;13.76;76.47
64874;HTU21D;51367;45.204;38.576;2023-03-21T09:28:53;13.86;76.35
64874;HTU21D;51367;45.204;38.576;2023-03-21T09:31:20;13.97;76.23
64874;HTU21D;51367;45.204;38.576;2023-03-21T09:33:48;14.06;76.08
64874;HTU21D;51367;45.204;38.576;2023-03-21T09:36:15;14.17;75.92
64874;HTU21D;51367;45.204;38.576;2023-03-21T09:38:44;14.23;75.79
64874;HTU21D;51367;45.204;38.576;2023-03-21T09:44:13;14.36;75.51
64874;HTU21D;51367;45.204;38.576;2023-03-21T09:46:46;14.43;75.49
64874;HTU21D;51367;45.204;38.576;2023-03-21T09:49:16;14.51;75.43
64874;HTU21D;51367;45.204;38.576;2023-03-21T09:51:45;14.59;75.29
64874;HTU21D;51367;45.204;38.576;2023-03-21T09:54:35;14.63;75.07
64874;HTU21D;51367;45.204;38.576;2023-03-21T09:59:52;14.66;74.88
64874;HTU21D;51367;45.204;38.576;2023-03-21T10:02:37;14.68;74.84
64874;HTU21D;51367;45.204;38.576;2023-03-21T10:07:56;14.73;74.72
64874;HTU21D;51367;45.204;38.576;2023-03-21T10:10:27;14.78;74.67
64874;HTU21D;51367;45.204;38.576;2023-03-21T10:12:54;14.81;74.60
64874;HTU21D;51367;45.204;38.576;2023-03-21T10:15:23;14.81;74.50
64874;HTU21D;51367;45.204;38.576;2023-03-21T10:20:27;14.86;74.41
64874;HTU21D;51367;45.204;38.576;2023-03-21T10:22:56;14.84;74.26
64874;HTU21D;51367;45.204;38.576;2023-03-21T10:25:32;14.85;74.20
64874;HTU21D;51367;45.204;38.576;2023-03-21T10:27:59;14.86;74.20
64874;HTU21D;51367;45.204;38.576;2023-03-21T10:30:43;14.87;74.10
64874;HTU21D;51367;45.204;38.576;2023-03-21T10:33:35;14.89;73.93
64874;HTU21D;51367;45.204;38.576;2023-03-21T10:36:07;14.86;73.94
64874;HTU21D;51367;45.204;38.576;2023-03-21T10:38:33;14.86;73.98
64874;HTU21D;51367;45.204;38.576;2023-03-21T10:41:00;14.88;73.96
64874;HTU21D;51367;45.204;38.576;2023-03-21T10:45:53;14.94;73.75
64874;HTU21D;51367;45.204;38.576;2023-03-21T10:48:20;14.96;73.70
64874;HTU21D;51367;45.204;38.576;2023-03-21T10:50:49;14.96;73.67
64874;HTU21D;51367;45.204;38.576;2023-03-21T10:53:31;14.95;73.51
64874;HTU21D;51367;45.204;38.576;2023-03-21T10:56:00;14.92;73.56
64874;HTU21D;51367;45.204;38.576;2023-03-21T10:58:34;14.88;73.54
64874;HTU21D;51367;45.204;38.576;2023-03-21T11:01:06;14.85;73.58
64874;HTU21D;51367;45.204;38.576;2023-03-21T11:03:36;14.84;73.55
64874;HTU21D;51367;45.204;38.576;2023-03-21T11:09:20;14.86;73.38
64874;HTU21D;51367;45.204;38.576;2023-03-21T11:11:33;14.81;73.40
64874;HTU21D;51367;45.204;38.576;2023-03-21T11:14:01;14.79;73.47
64874;HTU21D;51367;45.204;38.576;2023-03-21T11:16:40;14.79;73.46
64874;HTU21D;51367;45.204;38.576;2023-03-21T11:19:15;14.77;73.40
64874;HTU21D;51367;45.204;38.576;2023-03-21T11:21:42;14.74;73.39
64874;HTU21D;51367;45.204;38.576;2023-03-21T11:24:16;14.71;73.32
64874;HTU21D;51367;45.204;38.576;2023-03-21T11:26:45;14.68;73.35
64874;HTU21D;51367;45.204;38.576;2023-03-21T11:29:30;14.65;73.32
64874;HTU21D;51367;45.204;38.576;2023-03-21T11:32:11;14.62;73.29
64874;HTU21D;51367;45.204;38.576;2023-03-21T11:34:47;14.55;73.32
64874;HTU21D;51367;45.204;38.576;2023-03-21T11:37:32;14.49;73.24
64874;HTU21D;51367;45.204;38.576;2023-03-21T11:42:52;14.40;73.33
64874;HTU21D;51367;45.204;38.576;2023-03-21T11:45:28;14.36;73.35
64874;HTU21D;51367;45.204;38.576;2023-03-21T11:47:57;14.29;73.41
64874;HTU21D;51367;45.204;38.576;2023-03-21T11:50:38;14.28;73.44
64874;HTU21D;51367;45.204;38.576;2023-03-21T12:21:24;13.89;73.61
64874;HTU21D;51367;45.204;38.576;2023-03-21T12:32:17;13.74;73.75
64874;HTU21D;51367;45.204;38.576;2023-03-21T12:39:57;13.68;73.77
64874;HTU21D;51367;45.204;38.576;2023-03-21T12:45:13;13.65;73.77
64874;HTU21D;51367;45.204;38.576;2023-03-21T12:47:44;13.64;73.80
64874;HTU21D;51367;45.204;38.576;2023-03-21T12:50:23;13.64;73.79
64874;HTU21D;51367;45.204;38.576;2023-03-21T12:52:57;13.64;73.79
64874;HTU21D;51367;45.204;38.576;2023-03-21T12:55:29;13.64;73.80
64874;HTU21D;51367;45.204;38.576;2023-03-21T12:58:08;13.64;73.78
64874;HTU21D;51367;45.204;38.576;2023-03-21T13:00:39;13.64;73.78
64874;HTU21D;51367;45.204;38.576;2023-03-21T13:08:23;13.56;73.82
64874;HTU21D;51367;45.204;38.576;2023-03-21T13:10:51;13.55;73.90
64874;HTU21D;51367;45.204;38.576;2023-03-21T13:21:43;13.47;74.00
64874;HTU21D;51367;45.204;38.576;2023-03-21T13:27:05;13.43;74.05
64874;HTU21D;51367;45.204;38.576;2023-03-21T13:38:34;13.34;74.22
64874;HTU21D;51367;45.204;38.576;2023-03-21T13:43:34;13.30;74.29
64874;HTU21D;51367;45.204;38.576;2023-03-21T13:51:43;13.24;74.41
64874;HTU21D;51367;45.204;38.576;2023-03-21T13:59:38;13.22;74.50
64874;HTU21D;51367;45.204;38.576;2023-03-21T14:04:39;13.20;74.54
64874;HTU21D;51367;45.204;38.576;2023-03-21T14:07:12;13.19;74.57
64874;HTU21D;51367;45.204;38.576;2023-03-21T14:09:46;13.19;74.60
64874;HTU21D;51367;45.204;38.576;2023-03-21T14:12:17;13.20;74.63
64874;HTU21D;51367;45.204;38.576;2023-03-21T14:14:58;13.20;74.62
64874;HTU21D;51367;45.204;38.576;2023-03-21T14:17:27;13.19;74.62
64874;HTU21D;51367;45.204;38.576;2023-03-21T14:20:17;13.17;74.60
64874;HTU21D;51367;45.204;38.576;2023-03-21T14:22:41;13.16;74.64
64874;HTU21D;51367;45.204;38.576;2023-03-21T14:25:11;13.17;74.67
64874;HTU21D;51367;45.204;38.576;2023-03-21T14:27:44;13.16;74.69
64874;HTU21D;51367;45.204;38.576;2023-03-21T14:32:46;13.17;74.68
64874;HTU21D;51367;45.204;38.576;2023-03-21T14:35:12;13.15;74.72
64874;HTU21D;51367;45.204;38.576;2023-03-21T14:37:41;13.15;74.72
64874;HTU21D;51367;45.204;38.576;2023-03-21T14:40:26;13.12;74.76
64874;HTU21D;51367;45.204;38.576;2023-03-21T14:42:53;13.10;74.80
64874;HTU21D;51367;45.204;38.576;2023-03-21T14:45:27;13.07;74.80
64874;HTU21D;51367;45.204;38.576;2023-03-21T14:50:30;13.00;74.94
64874;HTU21D;51367;45.204;38.576;2023-03-21T14:52:59;12.99;74.99
64874;HTU21D;51367;45.204;38.576;2023-03-21T14:55:25;12.96;75.04
64874;HTU21D;51367;45.204;38.576;2023-03-21T14:57:54;12.93;75.09
64874;HTU21D;51367;45.204;38.576;2023-03-21T15:00:29;12.91;75.12
64874;HTU21D;51367;45.204;38.576;2023-03-21T15:02:57;12.90;75.18
64874;HTU21D;51367;45.204;38.576;2023-03-21T15:05:24;12.88;75.24
64874;HTU21D;51367;45.204;38.576;2023-03-21T15:07:56;12.86;75.26
64874;HTU21D;51367;45.204;38.576;2023-03-21T15:10:24;12.85;75.31
64874;HTU21D;51367;45.204;38.576;2023-03-21T15:12:56;12.82;75.33
64874;HTU21D;51367;45.204;38.576;2023-03-21T15:15:25;12.80;75.36
64874;HTU21D;51367;45.204;38.576;2023-03-21T15:17:52;12.79;75.36
64874;HTU21D;51367;45.204;38.576;2023-03-21T15:20:23;12.77;75.41
64874;HTU21D;51367;45.204;38.576;2023-03-21T15:22:54;12.76;75.44
64874;HTU21D;51367;45.204;38.576;2023-03-21T15:25:25;12.73;75.47
64874;HTU21D;51367;45.204;38.576;2023-03-21T15:27:53;12.71;75.51
64874;HTU21D;51367;45.204;38.576;2023-03-21T15:30:25;12.69;75.55
64874;HTU21D;51367;45.204;38.576;2023-03-21T15:32:54;12.67;75.58
64874;HTU21D;51367;45.204;38.576;2023-03-21T15:35:25;12.64;75.60
64874;HTU21D;51367;45.204;38.576;2023-03-21T15:37:56;12.63;75.60
64874;HTU21D;51367;45.204;38.576;2023-03-21T15:40:28;12.60;75.63
64874;HTU21D;51367;45.204;38.576;2023-03-21T15:43:24;12.55;75.67
64874;HTU21D;51367;45.204;38.576;2023-03-21T15:45:55;12.50;75.76
64874;HTU21D;51367;45.204;38.576;2023-03-21T15:48:25;12.47;75.83
64874;HTU21D;51367;45.204;38.576;2023-03-21T15:50:58;12.43;75.87
64874;HTU21D;51367;45.204;38.576;2023-03-21T15:53:26;12.41;75.94
64874;HTU21D;51367;45.204;38.576;2023-03-21T15:55:57;12.35;75.99
64874;HTU21D;51367;45.204;38.576;2023-03-21T15:58:33;12.32;76.09
64874;HTU21D;51367;45.204;38.576;2023-03-21T16:01:19;12.28;76.12
64874;HTU21D;51367;45.204;38.576;2023-03-21T16:03:47;12.25;76.18
64874;HTU21D;51367;45.204;38.576;2023-03-21T16:11:39;12.16;76.28
64874;HTU21D;51367;45.204;38.576;2023-03-21T16:14:06;12.14;76.30
64874;HTU21D;51367;45.204;38.576;2023-03-21T16:16:32;12.13;76.29
64874;HTU21D;51367;45.204;38.576;2023-03-21T16:18:59;12.10;76.37
64874;HTU21D;51367;45.204;38.576;2023-03-21T16:21:27;12.10;76.41
64874;HTU21D;51367;45.204;38.576;2023-03-21T16:23:54;12.05;76.42
64874;HTU21D;51367;45.204;38.576;2023-03-21T16:26:26;12.04;76.47
64874;HTU21D;51367;45.204;38.576;2023-03-21T16:28:52;12.00;76.50
64874;HTU21D;51367;45.204;38.576;2023-03-21T16:31:22;11.99;76.57
64874;HTU21D;51367;45.204;38.576;2023-03-21T16:33:49;11.98;76.60
64874;HTU21D;51367;45.204;38.576;2023-03-21T16:36:21;11.96;76.62
64874;HTU21D;51367;45.204;38.576;2023-03-21T16:38:49;11.94;76.61
64874;HTU21D;51367;45.204;38.576;2023-03-21T16:41:18;11.93;76.64
64874;HTU21D;51367;45.204;38.576;2023-03-21T16:43:44;11.90;76.68
64874;HTU21D;51367;45.204;38.576;2023-03-21T16:46:15;11.89;76.71
64874;HTU21D;51367;45.204;38.576;2023-03-21T16:48:44;11.88;76.73
64874;HTU21D;51367;45.204;38.576;2023-03-21T16:51:18;11.85;76.77
64874;HTU21D;51367;45.204;38.576;2023-03-21T16:53:45;11.84;76.82
64874;HTU21D;51367;45.204;38.576;2023-03-21T16:56:22;11.81;76.88
64874;HTU21D;51367;45.204;38.576;2023-03-21T16:58:51;11.77;76.94
64874;HTU21D;51367;45.204;38.576;2023-03-21T17:01:19;11.74;76.99
64874;HTU21D;51367;45.204;38.576;2023-03-21T17:03:51;11.72;77.08
64874;HTU21D;51367;45.204;38.576;2023-03-21T17:06:22;11.68;77.12
64874;HTU21D;51367;45.204;38.576;2023-03-21T17:08:49;11.66;77.18
64874;HTU21D;51367;45.204;38.576;2023-03-21T17:11:19;11.62;77.25
64874;HTU21D;51367;45.204;38.576;2023-03-21T17:13:47;11.61;77.31
64874;HTU21D;51367;45.204;38.576;2023-03-21T17:16:15;11.59;77.34
64874;HTU21D;51367;45.204;38.576;2023-03-21T17:18:42;11.57;77.37
64874;HTU21D;51367;45.204;38.576;2023-03-21T17:21:16;11.56;77.44
64874;HTU21D;51367;45.204;38.576;2023-03-21T17:23:42;11.54;77.47
64874;HTU21D;51367;45.204;38.576;2023-03-21T17:26:10;11.53;77.50
64874;HTU21D;51367;45.204;38.576;2023-03-21T17:28:38;11.52;77.49
64874;HTU21D;51367;45.204;38.576;2023-03-21T17:31:21;11.52;77.53
64874;HTU21D;51367;45.204;38.576;2023-03-21T17:33:47;11.52;77.52
64874;HTU21D;51367;45.204;38.576;2023-03-21T17:36:19;11.49;77.53
64874;HTU21D;51367;45.204;38.576;2023-03-21T17:38:46;11.48;77.55
64874;HTU21D;51367;45.204;38.576;2023-03-21T17:41:17;11.49;77.55
64874;HTU21D;51367;45.204;38.576;2023-03-21T17:43:44;11.48;77.56
64874;HTU21D;51367;45.204;38.576;2023-03-21T17:46:17;11.48;77.60
64874;HTU21D;51367;45.204;38.576;2023-03-21T17:48:44;11.46;77.60
64874;HTU21D;51367;45.204;38.576;2023-03-21T17:51:11;11.45;77.60
64874;HTU21D;51367;45.204;38.576;2023-03-21T17:53:40;11.44;77.64
64874;HTU21D;51367;45.204;38.576;2023-03-21T17:56:13;11.42;77.66
64874;HTU21D;51367;45.204;38.576;2023-03-21T17:58:39;11.40;77.68
64874;HTU21D;51367;45.204;38.576;2023-03-21T18:01:05;11.39;77.72